Time;durP1;ratioP1;P1;durP2;ratioP2;P2;SDS_P1;SDS_P2;PMS_P1;PMS_P2;Temp;Humidity;BMP_temperature;BMP_pressure;BME280_temperature;BME280_humidity;BME280_pressure;Samples;Min_cycle;Max_cycle;Signal;HPM_P1;HPM_P2
2020/12/20 00:01:42;;;;;;;5.25;1.85;;;8.50;99.90;;;;;;10428607;28;20041;-52
2020/12/20 00:07:07;;;;;;;3.67;1.48;;;8.50;99.90;;;;;;10427204;28;20037;-52
2020/12/20 00:12:28;;;;;;;10.07;3.50;;;8.50;99.90;;;;;;10415885;28;20164;-52
2020/12/20 00:17:52;;;;;;;7.18;2.00;;;8.60;99.90;;;;;;10425124;28;20568;-53
2020/12/20 00:23:13;;;;;;;5.25;1.98;;;8.60;99.90;;;;;;10425605;28;20498;-53
2020/12/20 00:28:34;;;;;;;3.58;1.73;;;8.60;99.90;;;;;;10424161;28;20044;-53
2020/12/20 00:33:55;;;;;;;3.33;1.40;;;8.70;99.90;;;;;;10413378;28;20052;-53
2020/12/20 00:39:18;;;;;;;2.95;1.35;;;8.70;99.90;;;;;;10426738;28;20036;-53
2020/12/20 00:44:39;;;;;;;3.45;1.42;;;8.80;99.90;;;;;;10424457;28;20759;-53
2020/12/20 00:50:00;;;;;;;5.45;2.15;;;8.80;99.90;;;;;;10436715;28;20044;-53
2020/12/20 00:55:21;;;;;;;4.60;2.38;;;8.90;99.90;;;;;;10429430;28;20075;-53
2020/12/20 01:00:42;;;;;;;2.33;1.02;;;8.90;99.90;;;;;;10426008;28;20045;-51
2020/12/20 01:06:04;;;;;;;2.63;1.40;;;8.90;99.90;;;;;;10431408;28;20091;-51
2020/12/20 01:11:24;;;;;;;7.50;2.08;;;9.00;99.90;;;;;;10423407;28;20186;-51
2020/12/20 01:16:45;;;;;;;2.30;0.90;;;8.90;99.90;;;;;;10429796;28;20483;-51
2020/12/20 01:22:06;;;;;;;3.72;1.67;;;8.90;99.90;;;;;;10428196;28;20374;-51
2020/12/20 01:27:27;;;;;;;4.28;1.35;;;8.90;99.90;;;;;;10429259;28;20025;-51
2020/12/20 01:32:48;;;;;;;3.50;1.48;;;8.80;99.90;;;;;;10387617;28;20554;-51
2020/12/20 01:38:09;;;;;;;3.58;0.82;;;8.80;99.90;;;;;;10433474;28;20528;-51
2020/12/20 01:43:59;;;;;;;3.28;1.40;;;8.80;99.90;;;;;;10439537;28;20036;-51
2020/12/20 01:49:20;;;;;;;4.60;1.42;;;8.80;99.90;;;;;;10426981;28;20123;-51
2020/12/20 01:54:48;;;;;;;7.32;1.77;;;8.90;99.90;;;;;;10427257;28;20060;-51
2020/12/20 02:00:10;;;;;;;5.43;2.08;;;8.80;99.90;;;;;;10417447;28;20614;-51
2020/12/20 02:05:31;;;;;;;5.93;1.40;;;8.80;99.90;;;;;;10441385;28;20426;-51
2020/12/20 02:11:06;;;;;;;4.32;1.50;;;8.80;99.90;;;;;;10439720;28;20099;-51
2020/12/20 02:16:27;;;;;;;4.38;1.15;;;8.80;99.90;;;;;;10443565;28;20040;-51
2020/12/20 02:21:48;;;;;;;4.03;1.13;;;8.80;99.90;;;;;;10444767;28;20047;-51
2020/12/20 02:27:09;;;;;;;3.88;1.52;;;8.80;99.90;;;;;;10434589;28;20131;-51
2020/12/20 02:32:30;;;;;;;2.65;1.10;;;8.80;99.90;;;;;;10428471;28;20055;-51
2020/12/20 02:37:51;;;;;;;7.68;1.65;;;8.80;99.90;;;;;;10444814;28;20045;-52
2020/12/20 02:43:12;;;;;;;7.18;1.27;;;8.80;99.90;;;;;;10427227;28;20119;-51
2020/12/20 02:48:33;;;;;;;4.38;1.45;;;8.80;99.90;;;;;;10444725;28;20037;-51
2020/12/20 02:53:54;;;;;;;2.83;1.10;;;8.70;99.90;;;;;;10433629;28;20067;-52
2020/12/20 02:59:15;;;;;;;4.18;1.50;;;8.70;99.90;;;;;;10446253;28;20726;-53
2020/12/20 03:04:36;;;;;;;4.57;1.85;;;8.70;99.90;;;;;;10447878;28;20055;-52
2020/12/20 03:09:57;;;;;;;3.92;1.48;;;8.60;99.90;;;;;;10445862;28;20048;-53
2020/12/20 03:15:18;;;;;;;2.45;1.05;;;8.60;99.90;;;;;;10442676;28;20040;-53
2020/12/20 03:20:39;;;;;;;7.57;1.48;;;8.70;99.90;;;;;;10442892;28;20036;-51
2020/12/20 03:26:00;;;;;;;4.72;1.60;;;8.60;99.90;;;;;;10423239;28;21976;-52
2020/12/20 03:31:23;;;;;;;3.10;1.52;;;8.60;99.90;;;;;;10429844;28;20054;-53
2020/12/20 03:36:44;;;;;;;4.95;1.30;;;8.60;99.90;;;;;;10437959;28;20059;-53
2020/12/20 03:42:05;;;;;;;21.38;2.53;;;8.60;99.90;;;;;;10441426;28;20196;-53
2020/12/20 03:47:26;;;;;;;1.67;0.80;;;8.60;99.90;;;;;;10436725;28;20068;-53
2020/12/20 03:52:47;;;;;;;5.93;1.83;;;8.60;99.90;;;;;;10423428;28;20045;-53
2020/12/20 03:58:08;;;;;;;2.45;1.88;;;8.60;99.90;;;;;;10439231;28;20044;-51
2020/12/20 04:03:29;;;;;;;3.08;1.50;;;8.60;99.90;;;;;;10441335;28;20036;-51
2020/12/20 04:08:50;;;;;;;3.75;1.08;;;8.60;99.90;;;;;;10433408;28;20029;-52
2020/12/20 04:14:11;;;;;;;9.65;1.33;;;8.60;99.90;;;;;;10431490;28;20491;-51
2020/12/20 04:19:32;;;;;;;3.33;1.77;;;8.60;99.90;;;;;;10438501;28;20068;-51
2020/12/20 04:24:53;;;;;;;5.45;2.10;;;8.60;99.90;;;;;;10438593;28;20032;-52
2020/12/20 04:30:15;;;;;;;3.88;0.88;;;8.50;99.90;;;;;;10441933;28;20041;-51
2020/12/20 04:35:36;;;;;;;6.13;1.88;;;8.50;99.90;;;;;;10440237;28;20125;-51
2020/12/20 04:40:57;;;;;;;2.38;1.02;;;8.50;99.90;;;;;;10436322;28;20087;-52
2020/12/20 04:46:19;;;;;;;4.07;1.35;;;8.50;99.90;;;;;;10421152;28;20052;-53
2020/12/20 04:51:41;;;;;;;6.25;1.33;;;8.50;99.90;;;;;;10429824;28;20033;-52
2020/12/20 04:57:02;;;;;;;5.95;1.38;;;8.60;99.90;;;;;;10435371;28;20098;-52
2020/12/20 05:02:23;;;;;;;2.15;1.20;;;8.50;99.90;;;;;;10435370;28;20037;-53
2020/12/20 05:07:45;;;;;;;9.18;1.17;;;8.50;99.90;;;;;;10432898;28;20060;-53
2020/12/20 05:13:06;;;;;;;1.75;0.90;;;8.50;99.90;;;;;;10425115;28;20041;-53
2020/12/20 05:18:27;;;;;;;5.05;1.63;;;8.50;99.90;;;;;;10434401;28;20037;-53
2020/12/20 05:23:48;;;;;;;7.43;1.45;;;8.50;99.90;;;;;;10446461;28;20028;-53
2020/12/20 05:29:11;;;;;;;4.90;1.60;;;8.40;99.90;;;;;;10447862;28;20033;-52
2020/12/20 05:34:32;;;;;;;5.43;1.30;;;8.40;99.90;;;;;;10443986;28;20794;-53
2020/12/20 05:39:55;;;;;;;4.68;1.27;;;8.40;99.90;;;;;;10438597;28;20044;-53
2020/12/20 05:45:18;;;;;;;2.70;1.20;;;8.40;99.90;;;;;;10418758;28;20043;-53
2020/12/20 05:50:39;;;;;;;5.35;1.60;;;8.40;99.90;;;;;;10446609;28;20068;-53
2020/12/20 05:56:02;;;;;;;4.50;1.73;;;8.50;99.90;;;;;;10443777;28;20318;-52
2020/12/20 06:01:24;;;;;;;4.13;1.20;;;8.40;99.90;;;;;;10445979;28;20049;-53
2020/12/20 06:06:54;;;;;;;2.95;1.10;;;8.40;99.90;;;;;;10449618;28;20143;-53
2020/12/20 06:12:19;;;;;;;5.15;1.67;;;8.50;99.90;;;;;;10443838;28;20358;-53
2020/12/20 06:17:47;;;;;;;6.30;1.67;;;8.50;99.90;;;;;;10421822;28;20057;-53
2020/12/20 06:23:08;;;;;;;2.75;1.20;;;8.50;99.90;;;;;;10444092;28;20489;-53
2020/12/20 06:28:33;;;;;;;1.75;0.80;;;8.60;99.90;;;;;;10443514;28;20032;-52
2020/12/20 06:33:54;;;;;;;1.88;1.17;;;8.60;99.90;;;;;;10439282;28;20652;-53
2020/12/20 06:39:38;;;;;;;2.53;1.13;;;8.50;99.90;;;;;;10438798;28;20037;-51
2020/12/20 06:45:19;;;;;;;2.17;0.80;;;8.50;99.90;;;;;;10443739;28;20037;-52
2020/12/20 06:50:47;;;;;;;3.28;1.75;;;8.50;99.90;;;;;;10442353;28;20516;-53
2020/12/20 06:56:21;;;;;;;3.67;0.93;;;8.50;99.90;;;;;;10440836;28;20044;-52
2020/12/20 07:01:42;;;;;;;12.07;0.95;;;8.50;99.90;;;;;;10437611;28;20060;-53
2020/12/20 07:07:12;;;;;;;4.57;1.60;;;8.50;99.90;;;;;;10445794;28;20040;-52
2020/12/20 07:12:43;;;;;;;2.65;0.95;;;8.50;99.90;;;;;;10441464;28;20480;-52
2020/12/20 07:18:04;;;;;;;5.32;1.67;;;8.40;99.90;;;;;;10440585;28;20047;-53
2020/12/20 07:23:25;;;;;;;4.07;1.17;;;8.30;99.90;;;;;;10439566;28;20484;-53
2020/12/20 07:28:47;;;;;;;4.93;1.25;;;8.30;99.90;;;;;;10443652;28;20047;-51
2020/12/20 07:34:08;;;;;;;4.07;1.38;;;8.30;99.90;;;;;;10444808;28;20059;-53
2020/12/20 07:39:29;;;;;;;19.10;1.92;;;8.20;99.90;;;;;;10427016;28;20065;-53
2020/12/20 07:44:54;;;;;;;5.28;1.67;;;8.20;99.90;;;;;;10441072;28;20445;-53
2020/12/20 07:50:22;;;;;;;4.10;1.10;;;8.20;99.90;;;;;;10427831;28;20037;-53
2020/12/20 07:55:47;;;;;;;8.18;1.52;;;8.20;99.90;;;;;;10434403;28;20133;-52
2020/12/20 08:01:08;;;;;;;9.60;1.52;;;8.20;99.90;;;;;;10439896;28;20053;-52
2020/12/20 08:06:31;;;;;;;5.03;1.30;;;8.10;99.90;;;;;;10441655;28;20033;-52
2020/12/20 08:11:53;;;;;;;5.13;1.90;;;8.20;99.90;;;;;;10433097;28;20048;-53
2020/12/20 08:17:19;;;;;;;2.40;1.08;;;8.20;99.90;;;;;;10439505;28;20037;-52
2020/12/20 08:22:40;;;;;;;1.83;1.00;;;8.20;99.90;;;;;;10439184;28;20175;-53
2020/12/20 08:28:01;;;;;;;7.68;1.42;;;8.10;99.90;;;;;;10436276;28;20262;-53
2020/12/20 08:33:33;;;;;;;3.38;1.25;;;8.10;99.90;;;;;;10435847;28;20037;-52
2020/12/20 08:38:54;;;;;;;4.18;1.95;;;8.10;99.90;;;;;;10446075;28;20033;-52
2020/12/20 08:44:15;;;;;;;2.90;0.73;;;8.10;99.90;;;;;;10442559;28;20420;-53
2020/12/20 08:49:38;;;;;;;8.20;1.88;;;8.10;99.90;;;;;;10444549;28;20033;-52
2020/12/20 08:55:01;;;;;;;2.70;1.38;;;8.10;99.90;;;;;;10447968;28;20123;-53
2020/12/20 09:00:22;;;;;;;4.72;1.13;;;8.10;99.90;;;;;;10437206;28;20033;-53
2020/12/20 09:05:43;;;;;;;6.47;1.88;;;8.30;99.90;;;;;;10435829;28;20037;-52
2020/12/20 09:11:04;;;;;;;3.40;1.15;;;8.30;99.90;;;;;;10436341;28;20047;-53
2020/12/20 09:16:40;;;;;;;2.97;1.23;;;8.30;99.90;;;;;;10437040;28;20053;-53
2020/12/20 09:22:01;;;;;;;6.68;1.10;;;8.40;99.90;;;;;;10437487;28;20103;-53
2020/12/20 09:27:22;;;;;;;7.90;1.45;;;8.40;99.90;;;;;;10438731;28;20036;-53
2020/12/20 09:32:43;;;;;;;3.85;1.23;;;8.50;99.90;;;;;;10433956;28;20056;-53
2020/12/20 09:38:04;;;;;;;6.55;1.13;;;8.50;99.90;;;;;;10436591;28;20033;-53
2020/12/20 09:43:26;;;;;;;4.60;1.00;;;8.60;99.90;;;;;;10439893;28;20029;-53
2020/12/20 09:48:50;;;;;;;3.80;1.35;;;8.60;99.90;;;;;;10426580;28;20033;-53
2020/12/20 09:54:11;;;;;;;4.97;0.93;;;8.70;99.90;;;;;;10437572;28;20426;-53
2020/12/20 09:59:32;;;;;;;2.83;1.08;;;8.70;99.90;;;;;;10439177;28;20040;-50
2020/12/20 10:04:53;;;;;;;4.60;1.40;;;8.90;99.90;;;;;;10449644;28;20744;-52
2020/12/20 10:10:14;;;;;;;3.47;1.30;;;9.10;99.90;;;;;;10449672;28;20033;-50
2020/12/20 10:15:35;;;;;;;5.05;1.42;;;9.20;99.90;;;;;;10434846;28;20044;-50
2020/12/20 10:20:56;;;;;;;8.70;1.65;;;9.50;99.90;;;;;;10445951;28;20120;-50
2020/12/20 10:26:17;;;;;;;9.52;1.90;;;9.70;99.90;;;;;;10445996;28;20033;-51
2020/12/20 10:31:42;;;;;;;9.80;1.38;;;9.70;99.90;;;;;;10443077;28;20048;-50
2020/12/20 10:37:03;;;;;;;2.20;1.13;;;9.70;99.90;;;;;;10434518;28;20047;-50
2020/12/20 10:42:24;;;;;;;11.00;1.67;;;9.80;99.90;;;;;;10437813;28;20055;-50
2020/12/20 10:47:45;;;;;;;3.20;1.20;;;9.70;99.90;;;;;;10449378;28;20032;-50
2020/12/20 10:53:06;;;;;;;6.25;1.08;;;9.70;99.90;;;;;;10448420;28;20676;-50
2020/12/20 10:58:27;;;;;;;9.35;2.92;;;9.70;99.90;;;;;;10447671;28;20127;-50
2020/12/20 11:03:49;;;;;;;3.85;1.55;;;9.80;99.90;;;;;;10443960;28;20446;-50
2020/12/20 11:09:10;;;;;;;7.75;2.08;;;9.90;99.90;;;;;;10436541;28;20036;-50
2020/12/20 11:14:34;;;;;;;5.38;1.20;;;10.20;99.90;;;;;;10441659;28;21637;-50
2020/12/20 11:19:55;;;;;;;2.88;1.13;;;10.10;99.90;;;;;;10440612;28;20041;-50
2020/12/20 11:25:16;;;;;;;7.43;1.77;;;10.50;99.90;;;;;;10442065;28;20408;-50
2020/12/20 11:30:37;;;;;;;4.78;2.15;;;10.90;99.90;;;;;;10427382;28;20377;-52
2020/12/20 11:35:58;;;;;;;13.20;1.60;;;11.20;99.90;;;;;;10451076;28;20429;-53
2020/12/20 11:41:23;;;;;;;15.15;3.25;;;10.90;99.90;;;;;;10439448;28;20098;-53
2020/12/20 11:46:44;;;;;;;6.13;2.67;;;10.70;99.90;;;;;;10439113;28;20040;-53
2020/12/20 11:52:05;;;;;;;5.90;3.03;;;10.60;99.90;;;;;;10429052;28;20409;-50
2020/12/20 11:57:26;;;;;;;5.38;2.35;;;10.40;99.90;;;;;;10438800;28;20045;-50
2020/12/20 12:02:47;;;;;;;8.02;3.72;;;10.20;99.90;;;;;;10442731;28;20143;-50
2020/12/20 12:08:09;;;;;;;7.65;2.45;;;10.20;99.90;;;;;;10445043;28;20083;-50
2020/12/20 12:13:31;;;;;;;3.88;1.40;;;10.30;99.90;;;;;;10446654;28;20041;-50
2020/12/20 12:18:52;;;;;;;4.80;1.55;;;10.30;99.90;;;;;;10416987;28;20058;-50
2020/12/20 12:24:13;;;;;;;3.88;1.67;;;10.10;99.90;;;;;;10447449;28;20381;-50
2020/12/20 12:29:34;;;;;;;19.08;2.65;;;10.10;99.90;;;;;;10445775;28;20045;-50
2020/12/20 12:34:56;;;;;;;6.63;2.47;;;10.00;99.90;;;;;;10436637;28;20571;-50
2020/12/20 12:40:18;;;;;;;4.93;1.85;;;10.10;99.90;;;;;;10445149;28;20044;-50
2020/12/20 12:45:39;;;;;;;6.53;1.67;;;10.00;99.90;;;;;;10442717;28;20043;-50
2020/12/20 12:51:00;;;;;;;8.25;1.65;;;10.00;99.90;;;;;;10444691;28;20061;-52
2020/12/20 12:56:21;;;;;;;5.25;1.88;;;10.00;99.90;;;;;;10442290;28;20040;-50
2020/12/20 13:01:42;;;;;;;7.50;2.33;;;9.90;99.90;;;;;;10439230;28;20033;-50
2020/12/20 13:07:03;;;;;;;5.63;1.30;;;10.00;99.90;;;;;;10445634;28;20049;-50
2020/12/20 13:12:24;;;;;;;4.85;1.67;;;10.00;99.90;;;;;;10442719;28;20136;-50
2020/12/20 13:17:45;;;;;;;4.82;1.58;;;9.90;99.90;;;;;;10441299;28;20079;-50
2020/12/20 13:23:06;;;;;;;5.55;1.67;;;10.00;99.90;;;;;;10443884;28;20064;-50
2020/12/20 13:28:27;;;;;;;14.45;1.98;;;10.00;99.90;;;;;;10439801;28;20048;-50
2020/12/20 13:33:49;;;;;;;4.57;1.35;;;10.20;99.90;;;;;;10448813;28;20055;-50
2020/12/20 13:39:09;;;;;;;6.93;1.80;;;10.10;99.90;;;;;;10447005;28;20028;-50
2020/12/20 13:44:30;;;;;;;5.65;1.50;;;10.00;99.90;;;;;;10455536;28;20033;-50
2020/12/20 13:49:52;;;;;;;2.78;1.45;;;10.00;99.90;;;;;;10449547;28;20048;-50
2020/12/20 13:55:13;;;;;;;6.65;1.83;;;10.10;99.90;;;;;;10453595;28;20040;-50
2020/12/20 14:00:37;;;;;;;2.80;1.35;;;10.10;99.90;;;;;;10452501;28;20469;-50
2020/12/20 14:05:58;;;;;;;3.30;1.20;;;10.20;99.90;;;;;;10449118;28;20045;-50
2020/12/20 14:11:19;;;;;;;5.38;0.90;;;10.10;99.90;;;;;;10447666;28;20040;-50
2020/12/20 14:16:40;;;;;;;8.77;2.50;;;10.00;99.90;;;;;;10449632;28;20040;-50
2020/12/20 14:22:01;;;;;;;8.15;2.50;;;9.90;99.90;;;;;;10448407;28;20075;-50
2020/12/20 14:27:22;;;;;;;3.80;1.77;;;9.80;99.90;;;;;;10452665;28;20041;-50
2020/12/20 14:32:47;;;;;;;7.85;1.63;;;9.80;99.90;;;;;;10451508;28;20037;-50
2020/12/20 14:38:08;;;;;;;2.92;0.95;;;9.80;99.90;;;;;;10444540;28;20098;-50
2020/12/20 14:43:29;;;;;;;8.13;1.13;;;9.80;99.90;;;;;;10440624;28;20439;-50
2020/12/20 14:48:50;;;;;;;4.00;1.52;;;9.80;99.90;;;;;;10438738;28;20033;-50
2020/12/20 14:54:11;;;;;;;3.88;1.02;;;9.70;99.90;;;;;;10439351;28;20036;-50
2020/12/20 14:59:32;;;;;;;9.00;1.33;;;9.70;99.90;;;;;;10448134;28;20123;-50
2020/12/20 15:04:53;;;;;;;3.97;1.38;;;9.70;99.90;;;;;;10443906;28;20399;-50
2020/12/20 15:10:14;;;;;;;2.13;0.98;;;9.70;99.90;;;;;;10449420;28;20040;-50
2020/12/20 15:15:35;;;;;;;2.72;1.20;;;9.70;99.90;;;;;;10448594;28;20090;-50
2020/12/20 15:20:56;;;;;;;9.23;2.60;;;9.70;99.90;;;;;;10447552;28;20033;-50
2020/12/20 15:26:18;;;;;;;7.07;2.78;;;9.60;99.90;;;;;;10443562;28;20037;-50
2020/12/20 15:31:43;;;;;;;2.83;1.20;;;9.60;99.90;;;;;;10445230;28;20041;-50
2020/12/20 15:37:04;;;;;;;5.03;1.35;;;9.60;99.90;;;;;;10443652;28;20060;-50
2020/12/20 15:42:25;;;;;;;4.40;1.25;;;9.50;99.90;;;;;;10442558;28;20064;-50
2020/12/20 15:47:46;;;;;;;1.65;0.65;;;9.50;99.90;;;;;;10443922;28;20049;-51
2020/12/20 15:53:07;;;;;;;9.85;0.95;;;9.50;99.90;;;;;;10447716;28;20049;-50
2020/12/20 15:58:28;;;;;;;7.78;2.05;;;9.50;99.90;;;;;;10442850;28;20040;-50
2020/12/20 16:03:49;;;;;;;4.13;1.27;;;9.40;99.90;;;;;;10440800;28;20561;-50
2020/12/20 16:09:11;;;;;;;4.22;1.23;;;9.30;99.90;;;;;;10446981;28;20166;-50
2020/12/20 16:14:32;;;;;;;2.47;0.82;;;9.30;99.90;;;;;;10448133;28;20743;-50
2020/12/20 16:19:53;;;;;;;3.60;0.90;;;9.20;99.90;;;;;;10435354;28;20060;-50
2020/12/20 16:25:14;;;;;;;2.65;1.17;;;9.20;99.90;;;;;;10436348;28;20457;-50
2020/12/20 16:30:35;;;;;;;7.30;1.83;;;9.10;99.90;;;;;;10446812;28;20037;-50
2020/12/20 16:35:56;;;;;;;11.88;1.95;;;9.00;99.90;;;;;;10441538;28;20511;-50
2020/12/20 16:41:17;;;;;;;1.98;0.95;;;8.90;99.90;;;;;;10441360;28;20044;-50
2020/12/20 16:46:39;;;;;;;9.60;1.60;;;8.80;99.90;;;;;;10434621;28;20032;-50
2020/12/20 16:52:00;;;;;;;1.80;0.90;;;8.70;99.90;;;;;;10437247;28;20029;-50
2020/12/20 16:57:22;;;;;;;2.25;0.80;;;8.70;99.90;;;;;;10435735;28;20492;-50
2020/12/20 17:02:43;;;;;;;4.55;1.00;;;8.60;99.90;;;;;;10435901;28;20040;-50
2020/12/20 17:08:04;;;;;;;8.07;2.67;;;8.60;99.90;;;;;;10437322;28;20033;-53
2020/12/20 17:13:25;;;;;;;3.40;1.40;;;8.50;99.90;;;;;;10428011;28;20904;-52
2020/12/20 17:18:46;;;;;;;3.88;1.13;;;8.60;99.90;;;;;;10432782;28;20068;-52
2020/12/20 17:24:07;;;;;;;2.47;1.00;;;8.60;99.90;;;;;;10441523;28;21061;-52
2020/12/20 17:29:28;;;;;;;2.63;1.20;;;8.70;99.90;;;;;;10446435;28;20079;-52
2020/12/20 17:34:49;;;;;;;5.07;1.10;;;8.50;99.90;;;;;;10443236;28;20056;-53
2020/12/20 17:40:10;;;;;;;1.95;1.00;;;8.50;99.90;;;;;;10440347;28;22798;-53
2020/12/20 17:45:31;;;;;;;3.70;1.13;;;8.40;99.90;;;;;;10439342;28;20056;-53
2020/12/20 17:50:52;;;;;;;2.00;0.90;;;8.30;99.90;;;;;;10442575;28;20043;-52
2020/12/20 17:56:19;;;;;;;2.83;1.30;;;8.20;99.90;;;;;;10438353;28;20036;-52
2020/12/20 18:01:39;;;;;;;5.45;0.80;;;8.20;99.90;;;;;;10444210;28;20598;-52
2020/12/20 18:07:00;;;;;;;5.38;1.02;;;8.10;99.90;;;;;;10438980;28;20041;-53
2020/12/20 18:12:21;;;;;;;2.95;0.80;;;8.10;99.90;;;;;;10437869;28;20037;-52
2020/12/20 18:17:43;;;;;;;2.72;1.55;;;8.20;99.90;;;;;;10445641;28;20562;-53
2020/12/20 18:23:04;;;;;;;2.35;0.77;;;8.20;99.90;;;;;;10443264;28;20442;-53
2020/12/20 18:28:25;;;;;;;3.22;1.40;;;8.20;99.90;;;;;;10438848;28;20391;-52
2020/12/20 18:33:46;;;;;;;6.38;1.33;;;8.20;99.90;;;;;;10444183;28;20143;-52
2020/12/20 18:39:11;;;;;;;6.80;1.70;;;8.10;99.90;;;;;;10441427;28;20036;-52
2020/12/20 18:44:32;;;;;;;6.65;1.48;;;8.20;99.90;;;;;;10435353;28;20150;-52
2020/12/20 18:49:53;;;;;;;2.75;0.60;;;8.30;99.90;;;;;;10441103;28;20073;-53
2020/12/20 18:55:14;;;;;;;7.68;3.13;;;8.30;99.90;;;;;;10443641;28;20047;-52
2020/12/20 19:00:36;;;;;;;1.90;1.13;;;8.30;99.90;;;;;;10438361;28;20090;-52
2020/12/20 19:05:57;;;;;;;18.75;1.25;;;8.30;99.90;;;;;;10440634;28;20052;-53
2020/12/20 19:11:25;;;;;;;4.00;1.00;;;8.30;99.90;;;;;;10436806;28;20124;-53
2020/12/20 19:16:48;;;;;;;7.88;1.67;;;8.30;99.90;;;;;;10435480;28;20051;-53
2020/12/20 19:22:09;;;;;;;1.90;0.80;;;8.30;99.90;;;;;;10442818;28;20037;-53
2020/12/20 19:27:30;;;;;;;6.28;1.15;;;8.30;99.90;;;;;;10425217;28;20036;-53
2020/12/20 19:32:51;;;;;;;3.70;1.05;;;8.30;99.90;;;;;;10420942;28;20045;-53
2020/12/20 19:38:12;;;;;;;6.40;1.00;;;8.30;99.90;;;;;;10427652;28;20159;-53
2020/12/20 19:43:33;;;;;;;4.10;0.75;;;8.20;99.90;;;;;;10429946;28;20064;-53
2020/12/20 19:48:58;;;;;;;1.95;0.85;;;8.20;99.90;;;;;;10436482;28;20044;-53
2020/12/20 19:54:19;;;;;;;2.13;0.63;;;8.10;99.90;;;;;;10434114;28;20060;-53
2020/12/20 19:59:40;;;;;;;3.08;1.08;;;8.00;99.90;;;;;;10430551;28;20041;-53
2020/12/20 20:05:01;;;;;;;1.65;0.65;;;8.00;99.90;;;;;;10429248;28;20047;-53
2020/12/20 20:10:22;;;;;;;2.40;0.68;;;8.00;99.90;;;;;;10429597;28;20723;-53
2020/12/20 20:15:43;;;;;;;2.67;0.70;;;7.90;99.90;;;;;;10435041;28;20294;-53
2020/12/20 20:21:04;;;;;;;1.42;0.85;;;7.90;99.90;;;;;;10438392;28;20045;-53
2020/12/20 20:26:26;;;;;;;2.85;1.10;;;7.80;99.90;;;;;;10431392;28;20045;-53
2020/12/20 20:31:48;;;;;;;7.88;1.55;;;7.80;99.90;;;;;;10433041;28;20175;-53
2020/12/20 20:37:09;;;;;;;4.28;1.42;;;7.80;99.90;;;;;;10437974;28;20432;-53
2020/12/20 20:42:30;;;;;;;3.03;0.93;;;7.70;99.90;;;;;;10439526;28;20049;-53
2020/12/20 20:47:50;;;;;;;2.78;1.00;;;7.70;99.90;;;;;;10432202;28;20049;-52
2020/12/20 20:53:12;;;;;;;7.60;1.60;;;7.60;99.90;;;;;;10433299;28;20036;-53
2020/12/20 20:58:32;;;;;;;3.58;0.90;;;7.60;99.90;;;;;;10439956;28;20029;-52
2020/12/20 21:03:54;;;;;;;6.20;1.73;;;7.50;99.90;;;;;;10443224;28;20091;-52
2020/12/20 21:09:17;;;;;;;3.30;1.23;;;7.50;99.90;;;;;;10440080;28;20037;-52
2020/12/20 21:14:38;;;;;;;4.45;1.30;;;7.50;99.90;;;;;;10439501;28;20045;-53
2020/12/20 21:19:59;;;;;;;4.32;1.95;;;7.60;99.90;;;;;;10435426;28;20120;-52
2020/12/20 21:25:20;;;;;;;3.90;0.82;;;7.60;99.90;;;;;;10433291;28;20474;-53
2020/12/20 21:30:41;;;;;;;7.07;1.17;;;7.60;99.90;;;;;;10439099;28;20440;-52
2020/12/20 21:36:03;;;;;;;4.68;0.60;;;7.70;99.90;;;;;;10438761;28;21936;-52
2020/12/20 21:41:24;;;;;;;2.65;1.27;;;7.90;99.90;;;;;;10430112;28;20041;-53
2020/12/20 21:46:46;;;;;;;1.55;0.60;;;7.80;99.90;;;;;;10434169;28;20036;-52
2020/12/20 21:52:06;;;;;;;3.92;1.00;;;7.70;99.90;;;;;;10432373;28;20556;-53
2020/12/20 21:57:29;;;;;;;5.50;1.63;;;7.70;99.90;;;;;;10439639;28;20048;-53
2020/12/20 22:02:50;;;;;;;2.55;0.50;;;7.60;99.90;;;;;;10441133;28;20036;-52
2020/12/20 22:08:11;;;;;;;2.25;0.75;;;7.60;99.90;;;;;;10442281;28;20145;-52
2020/12/20 22:13:32;;;;;;;0.93;0.47;;;7.60;99.90;;;;;;10447883;28;20059;-53
2020/12/20 22:18:53;;;;;;;1.17;0.50;;;7.60;99.90;;;;;;10450356;28;20051;-52
2020/12/20 22:24:14;;;;;;;7.03;1.95;;;7.60;99.90;;;;;;10445999;28;20036;-53
2020/12/20 22:29:35;;;;;;;1.60;0.77;;;7.60;99.90;;;;;;10445495;28;20037;-52
2020/12/20 22:34:58;;;;;;;2.83;1.55;;;7.60;99.90;;;;;;10443076;28;20040;-53
2020/12/20 22:40:19;;;;;;;2.40;0.60;;;7.60;99.90;;;;;;10443885;28;20061;-53
2020/12/20 22:45:40;;;;;;;4.20;0.65;;;7.50;99.90;;;;;;10435500;28;20345;-52
2020/12/20 22:51:01;;;;;;;0.98;0.30;;;7.50;99.90;;;;;;10447298;28;20033;-53
2020/12/20 22:56:22;;;;;;;2.22;1.00;;;7.40;99.90;;;;;;10443224;28;20481;-53
2020/12/20 23:01:48;;;;;;;2.25;0.60;;;7.30;99.90;;;;;;10442225;28;20153;-52
2020/12/20 23:07:10;;;;;;;1.10;0.45;;;7.40;99.90;;;;;;10440617;28;20037;-52
2020/12/20 23:12:31;;;;;;;2.78;0.90;;;7.30;99.90;;;;;;10435693;28;20037;-52
2020/12/20 23:17:52;;;;;;;2.65;0.60;;;7.30;99.90;;;;;;10447375;28;20055;-52
2020/12/20 23:23:17;;;;;;;6.53;1.00;;;7.20;99.90;;;;;;10445531;28;20098;-52
2020/12/20 23:28:37;;;;;;;2.60;0.90;;;7.20;99.90;;;;;;10440574;28;20079;-53
2020/12/20 23:33:59;;;;;;;3.08;0.52;;;7.20;99.90;;;;;;10437809;28;20049;-53
2020/12/20 23:39:23;;;;;;;1.98;0.90;;;7.10;99.90;;;;;;10448160;28;20033;-52
2020/12/20 23:44:45;;;;;;;1.90;0.70;;;7.00;99.90;;;;;;10437090;28;20316;-53
2020/12/20 23:50:08;;;;;;;3.72;1.80;;;6.90;99.90;;;;;;10443280;28;20040;-53
2020/12/20 23:55:29;;;;;;;3.50;1.33;;;6.90;99.90;;;;;;10446010;28;20045;-52
